createdAt,value
2023-01-22T00:02:06.204Z,20.48
2023-01-22T00:04:33.429Z,18.45
2023-01-22T00:07:00.542Z,20.88
2023-01-22T00:09:27.673Z,21.00
2023-01-22T00:11:54.749Z,22.90
2023-01-22T00:14:21.876Z,16.67
2023-01-22T00:16:49.032Z,21.73
2023-01-22T00:19:16.081Z,19.73
2023-01-22T00:21:43.215Z,19.25
2023-01-22T00:24:10.593Z,26.52
2023-01-22T00:26:38.169Z,17.05
2023-01-22T00:29:05.309Z,21.80
2023-01-22T00:31:32.510Z,20.20
2023-01-22T00:33:59.677Z,17.08
2023-01-22T00:36:26.830Z,18.38
2023-01-22T00:38:53.952Z,19.83
2023-01-22T00:41:21.431Z,19.52
2023-01-22T00:43:50.594Z,21.42
2023-01-22T00:46:19.066Z,19.77
2023-01-22T00:48:46.306Z,17.05
2023-01-22T00:51:14.816Z,20.20
2023-01-22T00:53:43.624Z,17.98
2023-01-22T00:56:11.024Z,17.35
2023-01-22T00:58:38.258Z,13.02
2023-01-22T01:01:06.022Z,19.20
2023-01-22T01:03:33.252Z,16.00
2023-01-22T01:06:05.480Z,16.58
2023-01-22T01:08:33.757Z,19.23
2023-01-22T01:11:02.175Z,14.50
2023-01-22T01:13:29.864Z,21.60
2023-01-22T01:16:01.484Z,18.00
2023-01-22T01:18:29.057Z,21.50
2023-01-22T01:20:56.818Z,18.95
2023-01-22T01:23:24.584Z,25.65
2023-01-22T01:25:51.938Z,18.33
2023-01-22T01:28:19.537Z,21.95
2023-01-22T01:30:47.063Z,22.20
2023-01-22T01:33:14.147Z,19.52
2023-01-22T01:35:41.289Z,22.30
2023-01-22T01:38:08.388Z,25.38
2023-01-22T01:40:35.521Z,23.25
2023-01-22T01:43:02.645Z,25.55
2023-01-22T01:45:30.950Z,18.08
2023-01-22T01:48:03.937Z,23.17
2023-01-22T01:50:31.240Z,21.48
2023-01-22T01:52:59.787Z,22.30
2023-01-22T01:55:30.911Z,18.80
2023-01-22T01:58:01.350Z,26.17
2023-01-22T02:00:32.017Z,17.83
2023-01-22T02:02:59.598Z,25.40
2023-01-22T02:05:29.100Z,24.00
2023-01-22T02:07:56.319Z,24.30
2023-01-22T02:10:23.432Z,23.00
2023-01-22T02:12:50.541Z,19.17
2023-01-22T02:15:17.688Z,27.52
2023-01-22T02:17:44.793Z,23.52
2023-01-22T02:20:12.059Z,22.67
2023-01-22T02:22:39.893Z,18.27
2023-01-22T02:25:07.989Z,29.60
2023-01-22T02:27:35.146Z,19.75
2023-01-22T02:30:02.516Z,18.73
2023-01-22T02:32:29.654Z,24.13
2023-01-22T02:34:56.792Z,18.83
2023-01-22T02:37:23.948Z,18.58
2023-01-22T02:39:51.103Z,16.20
2023-01-22T02:42:18.294Z,18.50
2023-01-22T02:44:45.407Z,25.80
2023-01-22T02:47:12.685Z,22.00
2023-01-22T02:49:39.875Z,22.00
2023-01-22T02:52:06.975Z,26.67
2023-01-22T02:54:34.018Z,25.45
2023-01-22T02:57:01.098Z,25.77
2023-01-22T02:59:28.768Z,22.27
2023-01-22T03:01:57.099Z,20.83
2023-01-22T03:04:24.602Z,27.83
2023-01-22T03:06:51.691Z,20.80
2023-01-22T03:09:18.793Z,25.35
2023-01-22T03:11:46.902Z,24.58
2023-01-22T03:14:33.526Z,21.08
2023-01-22T03:17:19.818Z,23.13
2023-01-22T03:20:05.830Z,23.35
2023-01-22T03:22:33.183Z,27.20
2023-01-22T03:25:01.375Z,27.30
2023-01-22T03:27:29.466Z,21.02
2023-01-22T03:29:57.043Z,18.70
2023-01-22T03:32:24.900Z,24.63
2023-01-22T03:34:53.678Z,21.70
2023-01-22T03:37:20.826Z,22.25
2023-01-22T03:39:48.155Z,17.30
2023-01-22T03:42:15.284Z,22.63
2023-01-22T03:44:42.505Z,23.23
2023-01-22T03:47:09.603Z,29.90
2023-01-22T03:49:36.804Z,19.45
2023-01-22T03:52:04.033Z,24.13
2023-01-22T03:54:31.283Z,23.00
2023-01-22T03:56:58.356Z,23.08
2023-01-22T03:59:25.430Z,27.65
2023-01-22T04:01:53.729Z,16.90
2023-01-22T04:04:21.232Z,18.75
2023-01-22T04:06:48.321Z,23.08
2023-01-22T04:09:15.763Z,18.95
2023-01-22T04:11:42.875Z,23.67
2023-01-22T04:14:09.950Z,17.48
2023-01-22T04:16:37.138Z,19.15
2023-01-22T04:19:04.350Z,24.67
2023-01-22T04:21:31.504Z,22.50
2023-01-22T04:23:58.609Z,17.40
2023-01-22T04:26:25.791Z,23.92
2023-01-22T04:28:53.053Z,21.20
2023-01-22T04:31:20.282Z,17.63
2023-01-22T04:33:47.462Z,19.63
2023-01-22T04:36:14.579Z,16.73
2023-01-22T04:38:41.664Z,23.08
2023-01-22T04:41:08.857Z,20.13
2023-01-22T04:43:35.924Z,15.77
2023-01-22T04:46:03.167Z,19.10
2023-01-22T04:48:30.443Z,17.10
2023-01-22T04:50:57.615Z,15.93
2023-01-22T04:53:24.765Z,18.83
2023-01-22T04:55:51.832Z,15.00
2023-01-22T04:58:19.066Z,18.35
2023-01-22T05:00:46.289Z,17.60
2023-01-22T05:03:13.464Z,16.67
2023-01-22T05:05:40.587Z,17.17
2023-01-22T05:08:07.653Z,16.08
2023-01-22T05:10:34.809Z,17.80
2023-01-22T05:13:05.816Z,18.30
2023-01-22T05:15:33.077Z,16.23
2023-01-22T05:18:00.425Z,18.30
2023-01-22T05:20:27.805Z,15.90
2023-01-22T05:22:54.952Z,18.23
2023-01-22T05:25:22.205Z,14.70
2023-01-22T05:27:49.245Z,13.35
2023-01-22T05:30:16.798Z,16.50
2023-01-22T05:32:44.195Z,18.95
2023-01-22T05:35:11.364Z,13.43
2023-01-22T05:37:38.467Z,17.13
2023-01-22T05:40:05.908Z,13.13
2023-01-22T05:42:33.082Z,17.35
2023-01-22T05:45:00.246Z,12.70
2023-01-22T05:47:27.333Z,10.43
2023-01-22T05:49:54.493Z,7.95
2023-01-22T05:52:21.603Z,8.55
2023-01-22T05:54:48.855Z,8.02
2023-01-22T05:57:16.122Z,8.02
2023-01-22T05:59:43.219Z,7.50
2023-01-22T06:02:10.478Z,6.75
2023-01-22T06:04:37.639Z,8.23
2023-01-22T06:07:04.865Z,8.02
2023-01-22T06:09:31.921Z,7.78
2023-01-22T06:11:59.061Z,8.25
2023-01-22T06:14:26.188Z,7.70
2023-01-22T06:16:53.272Z,6.75
2023-01-22T06:19:20.360Z,7.05
2023-01-22T06:21:47.480Z,9.65
2023-01-22T06:24:14.627Z,7.63
2023-01-22T06:26:41.750Z,9.80
2023-01-22T06:29:08.866Z,8.15
2023-01-22T06:31:36.008Z,6.88
2023-01-22T06:34:05.553Z,8.77
2023-01-22T06:36:32.807Z,6.82
2023-01-22T06:38:59.965Z,8.68
2023-01-22T06:41:27.203Z,9.88
2023-01-22T06:43:54.363Z,8.77
2023-01-22T06:46:21.600Z,9.32
2023-01-22T06:48:50.000Z,7.78
2023-01-22T06:51:17.298Z,8.63
2023-01-22T06:53:44.587Z,8.13
2023-01-22T06:56:11.734Z,7.32
2023-01-22T06:58:38.850Z,9.55
2023-01-22T07:01:06.791Z,7.18
2023-01-22T07:03:34.004Z,7.78
2023-01-22T07:06:02.330Z,9.57
2023-01-22T07:08:30.913Z,9.38
2023-01-22T07:10:58.182Z,8.18
2023-01-22T07:13:25.432Z,8.77
2023-01-22T07:15:53.110Z,9.98
2023-01-22T07:18:21.911Z,8.57
2023-01-22T07:20:48.999Z,8.30
2023-01-22T07:23:16.209Z,7.10
2023-01-22T07:25:44.738Z,13.38
2023-01-22T07:28:13.182Z,8.85
2023-01-22T07:30:41.793Z,8.55
2023-01-22T07:33:11.085Z,6.93
2023-01-22T07:35:38.235Z,9.52
2023-01-22T07:38:05.396Z,6.68
2023-01-22T07:40:32.645Z,6.68
2023-01-22T07:42:59.726Z,7.65
2023-01-22T07:45:26.892Z,9.27
2023-01-22T07:47:55.300Z,10.45
2023-01-22T07:50:23.326Z,9.48
2023-01-22T07:52:50.442Z,8.07
2023-01-22T07:55:17.933Z,8.93
2023-01-22T07:57:45.102Z,7.60
2023-01-22T08:00:13.024Z,6.25
2023-01-22T08:02:42.195Z,8.88
2023-01-22T08:05:09.887Z,8.25
2023-01-22T08:07:37.018Z,10.65
2023-01-22T08:10:05.127Z,10.82
2023-01-22T08:12:32.323Z,10.23
2023-01-22T08:14:59.479Z,7.95
2023-01-22T08:17:26.620Z,7.82
2023-01-22T08:19:53.749Z,8.60
2023-01-22T08:22:21.156Z,10.35
2023-01-22T08:24:48.211Z,9.15
2023-01-22T08:27:15.403Z,7.88
2023-01-22T08:29:42.541Z,9.60
2023-01-22T08:32:09.876Z,7.90
2023-01-22T08:34:37.130Z,9.65
2023-01-22T08:37:04.270Z,9.65
2023-01-22T08:39:31.462Z,9.15
2023-01-22T08:41:58.910Z,8.70
2023-01-22T08:44:26.507Z,7.55
2023-01-22T08:46:53.612Z,5.82
2023-01-22T08:49:22.348Z,7.07
2023-01-22T08:51:50.439Z,12.25
2023-01-22T08:54:20.625Z,9.13
2023-01-22T08:56:48.026Z,8.63
2023-01-22T08:59:15.733Z,9.82
2023-01-22T09:01:42.896Z,8.18
2023-01-22T09:04:11.032Z,7.22
2023-01-22T09:06:38.708Z,8.68
2023-01-22T09:09:06.209Z,8.05
2023-01-22T09:11:33.490Z,9.73
2023-01-22T09:14:00.826Z,8.10
2023-01-22T09:16:28.473Z,8.98
2023-01-22T09:18:55.716Z,10.40
2023-01-22T09:21:22.843Z,7.95
2023-01-22T09:23:49.985Z,10.48
2023-01-22T09:26:17.337Z,8.05
2023-01-22T09:28:44.430Z,8.88
2023-01-22T09:31:14.566Z,8.60
2023-01-22T09:33:41.795Z,7.43
2023-01-22T09:36:09.045Z,8.60
2023-01-22T09:38:36.191Z,8.07
2023-01-22T09:41:05.712Z,7.15
2023-01-22T09:43:38.276Z,6.38
2023-01-22T09:46:10.391Z,6.95
2023-01-22T09:51:05.371Z,8.40
2023-01-22T09:53:32.840Z,8.98
2023-01-22T09:56:00.530Z,7.22
2023-01-22T09:58:27.881Z,6.57
2023-01-22T10:01:00.181Z,6.35
2023-01-22T10:03:32.192Z,8.18
2023-01-22T10:06:02.098Z,8.05
2023-01-22T10:08:39.311Z,8.98
2023-01-22T10:11:09.652Z,7.75
2023-01-22T10:13:38.172Z,7.40
2023-01-22T10:16:05.949Z,7.53
2023-01-22T10:18:51.488Z,7.28
2023-01-22T10:21:23.653Z,9.13
2023-01-22T10:23:50.960Z,6.93
2023-01-22T10:26:21.918Z,8.55
2023-01-22T10:28:50.366Z,6.35
2023-01-22T10:31:23.943Z,8.13
2023-01-22T10:33:58.625Z,9.68
2023-01-22T10:36:25.939Z,8.32
2023-01-22T10:39:02.979Z,10.10
2023-01-22T10:41:30.748Z,8.00
2023-01-22T10:44:08.333Z,9.20
2023-01-22T10:46:35.401Z,12.02
2023-01-22T10:49:03.579Z,6.93
2023-01-22T10:51:35.153Z,8.70
2023-01-22T10:54:02.386Z,9.45
2023-01-22T10:56:34.298Z,7.10
2023-01-22T11:01:30.726Z,7.22
2023-01-22T11:03:57.851Z,7.93
2023-01-22T11:06:40.038Z,7.35
2023-01-22T11:11:37.910Z,7.65
2023-01-22T11:14:12.662Z,9.07
2023-01-22T11:16:40.940Z,8.10
2023-01-22T11:19:12.694Z,6.20
2023-01-22T11:21:53.271Z,6.93
2023-01-22T11:24:23.040Z,9.60
2023-01-22T11:27:16.185Z,6.55
2023-01-22T11:29:49.302Z,7.35
2023-01-22T11:32:34.720Z,9.05
2023-01-22T11:35:01.859Z,6.97
2023-01-22T11:37:55.369Z,8.60
2023-01-22T11:40:22.587Z,8.30
2023-01-22T11:43:22.154Z,8.38
2023-01-22T11:46:03.063Z,8.35
2023-01-22T11:48:36.377Z,6.72
2023-01-22T11:51:21.162Z,8.70
2023-01-22T11:53:48.345Z,8.40
2023-01-22T11:56:30.323Z,6.35
2023-01-22T11:59:12.588Z,8.23
2023-01-22T12:04:22.283Z,8.90
2023-01-22T12:06:59.370Z,9.38
2023-01-22T12:09:35.928Z,9.13
2023-01-22T12:12:05.933Z,7.93
2023-01-22T12:14:50.829Z,9.65
2023-01-22T12:17:27.167Z,8.55
2023-01-22T12:19:54.251Z,7.38
2023-01-22T12:22:27.827Z,8.55
2023-01-22T12:25:03.904Z,9.70
2023-01-22T12:27:33.396Z,9.80
2023-01-22T12:30:23.790Z,10.75
2023-01-22T12:32:55.462Z,10.00
2023-01-22T12:35:23.405Z,9.85
2023-01-22T12:37:53.606Z,10.32
2023-01-22T12:40:26.772Z,8.43
2023-01-22T12:43:03.914Z,9.60
2023-01-22T12:45:33.865Z,7.70
2023-01-22T12:48:05.995Z,10.52
2023-01-22T12:53:01.254Z,9.43
2023-01-22T12:55:32.844Z,10.00
2023-01-22T12:58:00.173Z,8.73
2023-01-22T13:00:34.951Z,12.60
2023-01-22T13:03:31.054Z,9.20
2023-01-22T13:05:59.475Z,9.40
2023-01-22T13:08:43.752Z,11.27
2023-01-22T13:11:12.549Z,9.63
2023-01-22T13:13:44.804Z,10.82
2023-01-22T13:16:15.266Z,10.30
2023-01-22T13:18:44.528Z,10.77
2023-01-22T13:21:15.903Z,9.75
2023-01-22T13:23:47.129Z,8.45
2023-01-22T13:26:19.148Z,8.27
2023-01-22T13:29:09.681Z,10.82
2023-01-22T13:31:37.133Z,10.23
2023-01-22T13:34:08.768Z,11.15
2023-01-22T13:36:40.396Z,10.13
2023-01-22T13:39:07.527Z,9.82
2023-01-22T13:41:38.563Z,9.68
2023-01-22T13:44:06.750Z,10.77
2023-01-22T13:46:37.375Z,13.32
2023-01-22T13:49:06.494Z,9.90
2023-01-22T13:51:34.681Z,10.52
2023-01-22T13:54:02.492Z,10.70
2023-01-22T13:56:29.914Z,15.85
2023-01-22T13:59:07.890Z,7.82
2023-01-22T14:01:35.979Z,7.97
2023-01-22T14:04:04.223Z,8.60
2023-01-22T14:06:31.676Z,10.70
2023-01-22T14:09:00.308Z,8.02
2023-01-22T14:11:37.668Z,7.60
2023-01-22T14:14:14.713Z,8.93
2023-01-22T14:16:42.017Z,9.98
2023-01-22T14:19:09.128Z,8.50
2023-01-22T14:21:37.378Z,11.35
2023-01-22T14:24:04.886Z,11.02
2023-01-22T14:26:32.182Z,9.13
2023-01-22T14:28:59.246Z,10.75
2023-01-22T14:31:26.399Z,8.73
2023-01-22T14:33:53.563Z,8.88
2023-01-22T14:36:20.729Z,9.48
2023-01-22T14:38:49.598Z,8.73
2023-01-22T14:41:16.772Z,9.88
2023-01-22T14:43:44.024Z,8.55
2023-01-22T14:46:11.242Z,10.80
2023-01-22T14:48:39.363Z,11.45
2023-01-22T14:51:10.885Z,8.65
2023-01-22T14:53:38.664Z,7.47
2023-01-22T14:56:06.033Z,10.50
2023-01-22T14:58:33.381Z,7.50
2023-01-22T15:01:00.607Z,8.63
2023-01-22T15:03:29.815Z,9.95
2023-01-22T15:05:57.102Z,9.45
2023-01-22T15:08:24.279Z,8.75
2023-01-22T15:10:51.394Z,12.18
2023-01-22T15:13:18.507Z,10.65
2023-01-22T15:15:45.655Z,7.97
2023-01-22T15:18:12.877Z,11.00
2023-01-22T15:20:40.026Z,8.07
2023-01-22T15:23:07.111Z,9.57
2023-01-22T15:25:34.196Z,10.18
2023-01-22T15:28:02.872Z,12.05
2023-01-22T15:30:30.228Z,8.63
2023-01-22T15:32:57.335Z,10.02
2023-01-22T15:35:24.427Z,10.50
2023-01-22T15:37:51.700Z,13.70
2023-01-22T15:40:19.285Z,9.38
2023-01-22T15:42:46.580Z,7.35
2023-01-22T15:45:13.855Z,9.68
2023-01-22T15:47:41.036Z,10.75
2023-01-22T15:50:08.487Z,10.88
2023-01-22T15:52:35.650Z,9.43
2023-01-22T15:55:02.914Z,8.98
2023-01-22T15:57:30.078Z,11.13
2023-01-22T15:59:57.219Z,11.27
2023-01-22T16:02:24.491Z,10.85
2023-01-22T16:04:51.658Z,8.18
2023-01-22T16:07:18.732Z,12.77
2023-01-22T16:09:45.994Z,8.63
2023-01-22T16:12:13.329Z,8.82
2023-01-22T16:14:40.583Z,12.10
2023-01-22T16:17:07.773Z,9.40
2023-01-22T16:19:34.829Z,9.45
2023-01-22T16:22:02.018Z,12.00
2023-01-22T16:24:29.232Z,13.30
2023-01-22T16:26:56.390Z,12.93
2023-01-22T16:29:23.520Z,13.20
2023-01-22T16:31:50.799Z,12.68
2023-01-22T16:34:19.607Z,11.18
2023-01-22T16:36:46.852Z,10.98
2023-01-22T16:39:17.447Z,11.73
2023-01-22T16:41:46.510Z,11.82
2023-01-22T16:44:16.022Z,13.07
2023-01-22T16:46:44.436Z,8.50
2023-01-22T16:49:16.228Z,14.98
2023-01-22T16:51:45.401Z,17.50
2023-01-22T16:54:19.538Z,10.45
2023-01-22T16:56:46.918Z,11.95
2023-01-22T16:59:14.107Z,8.30
2023-01-22T17:01:41.690Z,10.75
2023-01-22T17:04:09.119Z,12.15
2023-01-22T17:06:40.880Z,13.63
2023-01-22T17:09:08.952Z,7.25
2023-01-22T17:11:36.083Z,13.00
2023-01-22T17:14:03.250Z,9.38
2023-01-22T17:16:30.395Z,14.25
2023-01-22T17:18:59.034Z,10.88
2023-01-22T17:21:26.244Z,12.30
2023-01-22T17:23:53.497Z,9.98
2023-01-22T17:26:20.552Z,10.48
2023-01-22T17:28:47.787Z,10.77
2023-01-22T17:31:20.527Z,8.95
2023-01-22T17:33:48.055Z,14.32
2023-01-22T17:36:16.121Z,9.15
2023-01-22T17:38:43.598Z,9.48
2023-01-22T17:41:12.394Z,11.27
2023-01-22T17:43:39.548Z,12.45
2023-01-22T17:46:14.578Z,11.48
2023-01-22T17:48:41.960Z,10.82
2023-01-22T17:51:10.554Z,8.15
2023-01-22T17:53:38.738Z,8.73
2023-01-22T17:56:10.408Z,8.10
2023-01-22T17:58:37.928Z,11.85
2023-01-22T18:01:06.219Z,14.50
2023-01-22T18:03:33.770Z,11.50
2023-01-22T18:06:01.194Z,8.95
2023-01-22T18:08:29.614Z,15.82
2023-01-22T18:10:57.576Z,9.05
2023-01-22T18:13:24.776Z,12.18
2023-01-22T18:15:52.079Z,10.07
2023-01-22T18:18:19.418Z,7.78
2023-01-22T18:20:47.278Z,8.02
2023-01-22T18:23:15.467Z,9.00
2023-01-22T18:25:49.740Z,11.00
2023-01-22T18:28:19.887Z,10.40
2023-01-22T18:30:47.549Z,10.43
2023-01-22T18:33:15.000Z,8.52
2023-01-22T18:35:42.791Z,9.10
2023-01-22T18:38:09.939Z,12.55
2023-01-22T18:40:37.585Z,8.98
2023-01-22T18:43:10.081Z,10.95
2023-01-22T18:45:37.431Z,11.25
2023-01-22T18:48:04.842Z,10.75
2023-01-22T18:50:31.963Z,7.85
2023-01-22T18:53:02.099Z,9.07
2023-01-22T18:55:30.867Z,8.13
2023-01-22T18:58:07.122Z,9.68
2023-01-22T19:00:34.290Z,12.30
2023-01-22T19:03:01.759Z,9.18
2023-01-22T19:05:29.406Z,9.48
2023-01-22T19:07:56.555Z,9.68
2023-01-22T19:10:23.965Z,12.35
2023-01-22T19:12:51.108Z,10.07
2023-01-22T19:15:18.644Z,10.10
2023-01-22T19:17:45.822Z,9.88
2023-01-22T19:20:15.231Z,10.95
2023-01-22T19:22:42.477Z,8.23
2023-01-22T19:25:10.865Z,13.13
2023-01-22T19:27:38.858Z,13.52
2023-01-22T19:30:06.703Z,12.75
2023-01-22T19:32:36.265Z,12.40
2023-01-22T19:35:03.462Z,12.35
2023-01-22T19:37:30.633Z,7.43
2023-01-22T19:39:58.580Z,7.65
2023-01-22T19:42:26.152Z,10.50
2023-01-22T19:44:53.411Z,7.35
2023-01-22T19:47:20.989Z,8.93
2023-01-22T19:49:48.238Z,9.10
2023-01-22T19:52:15.575Z,9.88
2023-01-22T19:54:47.338Z,13.73
2023-01-22T19:57:15.658Z,13.75
2023-01-22T19:59:43.031Z,8.00
2023-01-22T20:02:13.212Z,9.98
2023-01-22T20:04:41.010Z,12.25
2023-01-22T20:07:08.266Z,7.72
2023-01-22T20:09:36.249Z,11.80
2023-01-22T20:12:05.429Z,9.13
2023-01-22T20:14:34.149Z,10.88
2023-01-22T20:17:02.229Z,11.13
2023-01-22T20:19:30.350Z,11.25
2023-01-22T20:21:57.558Z,7.82
2023-01-22T20:24:24.745Z,11.77
2023-01-22T20:26:54.386Z,12.30
2023-01-22T20:29:21.500Z,17.58
2023-01-22T20:31:51.248Z,15.70
2023-01-22T20:34:18.590Z,9.10
2023-01-22T20:36:45.896Z,10.10
2023-01-22T20:39:13.505Z,11.73
2023-01-22T20:41:40.651Z,11.32
2023-01-22T20:44:09.092Z,13.20
2023-01-22T20:46:37.489Z,17.45
2023-01-22T20:49:04.823Z,11.32
2023-01-22T20:51:31.976Z,10.48
2023-01-22T20:53:59.167Z,14.52
2023-01-22T20:56:28.879Z,12.45
2023-01-22T20:59:00.937Z,7.70
2023-01-22T21:03:56.300Z,11.65
2023-01-22T21:06:24.492Z,11.02
2023-01-22T21:08:52.956Z,13.13
2023-01-22T21:11:21.502Z,9.65
2023-01-22T21:13:49.570Z,14.52
2023-01-22T21:16:18.336Z,8.95
2023-01-22T21:18:46.859Z,13.73
2023-01-22T21:21:17.613Z,15.60
2023-01-22T21:23:45.270Z,9.23
2023-01-22T21:26:14.824Z,11.55
2023-01-22T21:28:42.087Z,13.18
2023-01-22T21:31:10.422Z,9.90
2023-01-22T21:33:37.727Z,9.48
2023-01-22T21:36:05.792Z,15.23
2023-01-22T21:38:33.422Z,11.38
2023-01-22T21:41:08.511Z,9.55
2023-01-22T21:43:54.819Z,12.30
2023-01-22T21:46:22.325Z,13.23
2023-01-22T21:48:49.807Z,13.25
2023-01-22T21:51:16.957Z,12.07
2023-01-22T21:53:45.042Z,10.20
2023-01-22T21:56:12.225Z,11.15
2023-01-22T21:58:42.318Z,9.85
2023-01-22T22:01:09.806Z,12.40
2023-01-22T22:03:37.096Z,11.82
2023-01-22T22:06:04.316Z,11.15
2023-01-22T22:08:31.386Z,8.73
2023-01-22T22:10:58.557Z,11.15
2023-01-22T22:13:25.923Z,16.13
2023-01-22T22:15:53.074Z,8.93
2023-01-22T22:18:20.336Z,12.00
2023-01-22T22:20:47.450Z,9.88
2023-01-22T22:23:14.600Z,12.02
2023-01-22T22:25:41.748Z,13.07
2023-01-22T22:28:08.829Z,13.35
2023-01-22T22:30:36.019Z,9.82
2023-01-22T22:33:03.102Z,9.40
2023-01-22T22:35:30.989Z,15.95
2023-01-22T22:37:58.182Z,10.15
2023-01-22T22:40:25.262Z,11.35
2023-01-22T22:42:52.415Z,11.65
2023-01-22T22:45:19.571Z,11.25
2023-01-22T22:47:46.670Z,10.05
2023-01-22T22:50:13.769Z,9.77
2023-01-22T22:52:40.941Z,9.38
2023-01-22T22:55:08.271Z,11.52
2023-01-22T22:57:35.393Z,11.77
2023-01-22T23:00:06.472Z,7.50
2023-01-22T23:02:33.590Z,8.25
2023-01-22T23:05:00.688Z,12.52
2023-01-22T23:07:27.784Z,10.25
2023-01-22T23:09:55.027Z,9.38
2023-01-22T23:12:22.163Z,10.55
2023-01-22T23:14:49.285Z,12.70
2023-01-22T23:17:16.459Z,8.65
2023-01-22T23:19:43.559Z,11.30
2023-01-22T23:22:10.702Z,10.93
2023-01-22T23:24:37.839Z,10.63
2023-01-22T23:27:05.181Z,13.35
2023-01-22T23:29:32.358Z,12.25
2023-01-22T23:31:59.668Z,11.32
2023-01-22T23:34:26.769Z,8.43
2023-01-22T23:36:53.908Z,10.90
2023-01-22T23:39:21.584Z,9.13
2023-01-22T23:41:48.778Z,11.23
2023-01-22T23:44:16.092Z,10.35
2023-01-22T23:46:43.449Z,11.13
2023-01-22T23:49:11.115Z,9.65
2023-01-22T23:51:41.010Z,11.70
2023-01-22T23:54:08.785Z,13.93
2023-01-22T23:56:35.982Z,8.30
2023-01-22T23:59:03.073Z,10.48
